Back to Top

Language: 

My Weather Underground Personal Weather Station Historical Data with Graphs...

Delerius Weather Station Historical Data
Daily Summary for May 25, 2017 Units:  Metric    English   Both
« Previous Day
Next Day »
Daily Weekly Monthly Yearly Custom
  High: Low: Average:
Temperature: 27.4 °C 10.4 °C 20.3 °C
Dew Point: 16.8 °C 9.4 °C 14.3 °C
Humidity: 96 % 47 % 71 %
Wind Speed: 11.3 km/h 0 km/h 4.5 km/h
Wind Gust: 22.5 km/h - -
Wind:- - SE
Pressure: 1024.9 hPa 1020.2 hPa -
Precipitation: 0 mm    
Historical Graphs
 
 
Tabular Data for May 25, 2017
Time Temperature Dew Point Pressure Wind Wind Speed Wind Gust Humidity Rainfall Rate (Hourly) solar Conditions
00:04 14.8 °C 13.2 °C 1024.6 hPa WNW 4.8 km/h 8 km/h 90 % 0 mm 0 W/m2
00:09 14.7 °C 13.1 °C 1024.6 hPa WNW 3.2 km/h 8 km/h 90 % 0 mm 0 W/m2
00:14 14.7 °C 13.1 °C 1024.9 hPa WNW 1.6 km/h 6.4 km/h 90 % 0 mm 0 W/m2
00:19 14.6 °C 13 °C 1024.9 hPa WNW 1.6 km/h 6.4 km/h 90 % 0 mm 0 W/m2
00:24 14.5 °C 12.9 °C 1024.6 hPa Calm   3.2 km/h 90 % 0 mm 0 W/m2
00:29 14.4 °C 12.8 °C 1024.6 hPa Calm     90 % 0 mm 0 W/m2
00:34 14.3 °C 12.7 °C 1024.6 hPa Calm   1.6 km/h 90 % 0 mm 0 W/m2
00:39 14.1 °C 12.5 °C 1024.6 hPa Calm   3.2 km/h 90 % 0 mm 0 W/m2
00:44 14 °C 12.4 °C 1024.6 hPa Calm   3.2 km/h 90 % 0 mm 0 W/m2
00:49 13.8 °C 12.2 °C 1024.6 hPa Calm   3.2 km/h 90 % 0 mm 0 W/m2
00:54 13.7 °C 12.1 °C 1024.6 hPa Calm   3.2 km/h 90 % 0 mm 0 W/m2
00:59 13.6 °C 12 °C 1024.6 hPa Calm     90 % 0 mm 0 W/m2
01:04 13.4 °C 11.8 °C 1024.6 hPa Calm   3.2 km/h 90 % 0 mm 0 W/m2
01:09 13.3 °C 11.7 °C 1024.6 hPa Calm   3.2 km/h 90 % 0 mm 0 W/m2
01:14 13.2 °C 11.8 °C 1024.3 hPa WNW 1.6 km/h 6.4 km/h 91 % 0 mm 0 W/m2
01:19 13.1 °C 11.7 °C 1024.6 hPa WNW 3.2 km/h 8 km/h 91 % 0 mm 0 W/m2
01:24 13.2 °C 11.9 °C 1024.3 hPa WNW 4.8 km/h 9.7 km/h 92 % 0 mm 0 W/m2
01:29 13.3 °C 12 °C 1024.3 hPa WNW 3.2 km/h 9.7 km/h 92 % 0 mm 0 W/m2
01:34 13 °C 11.6 °C 1024.3 hPa WNW 1.6 km/h 8 km/h 91 % 0 mm 0 W/m2
01:39 12.8 °C 11.4 °C 1024.3 hPa Calm     91 % 0 mm 0 W/m2
01:44 12.6 °C 11.2 °C 1024.3 hPa Calm     91 % 0 mm 0 W/m2
01:49 12.5 °C 11.1 °C 1024.3 hPa Calm     91 % 0 mm 0 W/m2
01:54 12.4 °C 10.9 °C 1024.3 hPa Calm     91 % 0 mm 0 W/m2
01:59 12.2 °C 10.8 °C 1024.3 hPa Calm   3.2 km/h 91 % 0 mm 0 W/m2
02:04 12.2 °C 10.8 °C 1024.3 hPa Calm   3.2 km/h 91 % 0 mm 0 W/m2
02:09 12.2 °C 10.9 °C 1024.3 hPa Calm   3.2 km/h 92 % 0 mm 0 W/m2
02:14 12.2 °C 10.9 °C 1024.3 hPa Calm     92 % 0 mm 0 W/m2
02:19 12.2 °C 10.9 °C 1024.3 hPa Calm     92 % 0 mm 0 W/m2
02:24 12.1 °C 10.8 °C 1024.3 hPa Calm     92 % 0 mm 0 W/m2
02:29 12 °C 10.7 °C 1024.3 hPa Calm     92 % 0 mm 0 W/m2
02:34 11.9 °C 10.7 °C 1024.3 hPa Calm     92 % 0 mm 0 W/m2
02:39 11.9 °C 10.8 °C 1024.3 hPa Calm     93 % 0 mm 0 W/m2
02:44 11.9 °C 10.8 °C 1024.3 hPa Calm     93 % 0 mm 0 W/m2
02:49 11.8 °C 10.7 °C 1024.3 hPa WNW 1.6 km/h 3.2 km/h 93 % 0 mm 0 W/m2
02:55 11.7 °C 10.6 °C 1024.3 hPa WNW 1.6 km/h 3.2 km/h 93 % 0 mm 0 W/m2
03:00 11.7 °C 10.4 °C 1024.3 hPa Calm   3.2 km/h 92 % 0 mm 0 W/m2
03:05 11.6 °C 10.5 °C 1024.3 hPa Calm     93 % 0 mm 0 W/m2
03:10 11.5 °C 10.4 °C 1024.3 hPa Calm   6.4 km/h 93 % 0 mm 0 W/m2
03:15 11.5 °C 10.4 °C 1024.3 hPa Calm   6.4 km/h 93 % 0 mm 0 W/m2
03:20 11.5 °C 10.4 °C 1024.3 hPa Calm     93 % 0 mm 0 W/m2
03:25 11.5 °C 10.4 °C 1024.3 hPa Calm     93 % 0 mm 0 W/m2
03:30 11.4 °C 10.3 °C 1024.3 hPa Calm     93 % 0 mm 0 W/m2
03:35 11.3 °C 10.2 °C 1024.3 hPa Calm   3.2 km/h 93 % 0 mm 0 W/m2
03:40 11.4 °C 10.4 °C 1024.3 hPa Calm   3.2 km/h 94 % 0 mm 0 W/m2
03:45 11.4 °C 10.3 °C 1024.3 hPa Calm   1.6 km/h 93 % 0 mm 0 W/m2
03:50 11.3 °C 10.2 °C 1024.3 hPa Calm     93 % 0 mm 0 W/m2
03:55 11.2 °C 10.1 °C 1024.3 hPa Calm     93 % 0 mm 0 W/m2
04:00 11.1 °C 10 °C 1024.3 hPa Calm     93 % 0 mm 0 W/m2
04:05 10.9 °C 9.7 °C 1024.3 hPa Calm     92 % 0 mm 0 W/m2
04:10 10.8 °C 9.7 °C 1024.3 hPa Calm     93 % 0 mm 0 W/m2
04:15 10.8 °C 9.7 °C 1023.9 hPa Calm     93 % 0 mm 0 W/m2
04:20 10.7 °C 9.6 °C 1024.3 hPa Calm     93 % 0 mm 0 W/m2
04:25 10.6 °C 9.5 °C 1024.3 hPa Calm     93 % 0 mm 0 W/m2
04:30 10.6 °C 9.5 °C 1023.9 hPa Calm   3.2 km/h 93 % 0 mm 0 W/m2
04:35 10.5 °C 9.4 °C 1023.9 hPa Calm   3.2 km/h 93 % 0 mm 0 W/m2
04:40 10.5 °C 9.6 °C 1023.9 hPa Calm     94 % 0 mm 0 W/m2
04:45 10.5 °C 9.6 °C 1023.9 hPa Calm     94 % 0 mm 0 W/m2
04:50 10.5 °C 9.6 °C 1023.9 hPa Calm     94 % 0 mm 0 W/m2
04:55 10.4 °C 9.5 °C 1024.3 hPa Calm     94 % 0 mm 5 W/m2
05:00 10.4 °C 9.5 °C 1023.9 hPa Calm     94 % 0 mm 7 W/m2
05:05 10.4 °C 9.5 °C 1023.9 hPa Calm     94 % 0 mm 9 W/m2
05:10 10.4 °C 9.5 °C 1024.3 hPa Calm     94 % 0 mm 11 W/m2
05:15 10.5 °C 9.6 °C 1024.3 hPa Calm     94 % 0 mm 11 W/m2
05:20 10.5 °C 9.7 °C 1024.3 hPa Calm     95 % 0 mm 12 W/m2
05:25 10.6 °C 9.7 °C 1024.3 hPa Calm     94 % 0 mm 14 W/m2
05:30 10.5 °C 9.6 °C 1024.3 hPa Calm     94 % 0 mm 16 W/m2
05:35 10.6 °C 9.8 °C 1024.3 hPa Calm     95 % 0 mm 18 W/m2
05:40 10.6 °C 9.8 °C 1024.3 hPa Calm     95 % 0 mm 19 W/m2
05:45 10.7 °C 9.9 °C 1024.3 hPa Calm     95 % 0 mm 21 W/m2
05:50 10.6 °C 9.7 °C 1024.3 hPa Calm     94 % 0 mm 23 W/m2
05:56 10.6 °C 9.7 °C 1024.3 hPa Calm     94 % 0 mm 23 W/m2
06:01 10.6 °C 9.8 °C 1024.6 hPa Calm     95 % 0 mm 86 W/m2
06:06 10.8 °C 10.1 °C 1024.6 hPa Calm     95 % 0 mm 102 W/m2
06:11 11.1 °C 10.5 °C 1024.6 hPa Calm     96 % 0 mm 97 W/m2
06:16 11.4 °C 10.8 °C 1024.6 hPa Calm     96 % 0 mm 109 W/m2
06:21 11.8 °C 11.2 °C 1024.6 hPa Calm     96 % 0 mm 30 W/m2
06:26 12.1 °C 11.5 °C 1024.6 hPa Calm     96 % 0 mm 33 W/m2
06:31 12.4 °C 11.8 °C 1024.6 hPa Calm     96 % 0 mm 35 W/m2
06:36 12.6 °C 11.8 °C 1024.6 hPa Calm     95 % 0 mm 42 W/m2
06:41 12.8 °C 11.8 °C 1024.6 hPa Calm     94 % 0 mm 44 W/m2
06:46 12.9 °C 11.9 °C 1024.6 hPa Calm     94 % 0 mm 65 W/m2
06:51 12.9 °C 11.8 °C 1024.6 hPa Calm     93 % 0 mm 58 W/m2
06:56 13 °C 11.9 °C 1024.6 hPa Calm     93 % 0 mm 76 W/m2
07:01 13.2 °C 12.1 °C 1024.6 hPa Calm     93 % 0 mm 98 W/m2
07:06 13.4 °C 12.3 °C 1024.6 hPa Calm     93 % 0 mm 97 W/m2
07:11 13.7 °C 12.6 °C 1024.6 hPa Calm     93 % 0 mm 197 W/m2
07:16 14.1 °C 12.8 °C 1024.6 hPa Calm     92 % 0 mm 248 W/m2
07:21 14.6 °C 13.3 °C 1024.6 hPa Calm     92 % 0 mm 262 W/m2
07:26 15.2 °C 13.6 °C 1024.6 hPa Calm     90 % 0 mm 288 W/m2
07:31 15.6 °C 13.6 °C 1024.6 hPa Calm     88 % 0 mm 278 W/m2
07:36 15.8 °C 13.4 °C 1024.6 hPa Calm     86 % 0 mm 304 W/m2
07:41 16.1 °C 13.6 °C 1024.6 hPa Calm     85 % 0 mm 318 W/m2
07:46 16.5 °C 13.8 °C 1024.6 hPa Calm     84 % 0 mm 334 W/m2
07:51 16.9 °C 13.8 °C 1024.6 hPa Calm     82 % 0 mm 343 W/m2
07:56 17.3 °C 14 °C 1024.6 hPa Calm     81 % 0 mm 357 W/m2
08:01 17.8 °C 14.1 °C 1024.6 hPa Calm   3.2 km/h 79 % 0 mm 387 W/m2
08:06 18.4 °C 14.7 °C 1024.6 hPa WNW 1.6 km/h 3.2 km/h 79 % 0 mm 392 W/m2
08:11 18.7 °C 14.6 °C 1024.6 hPa WNW 1.6 km/h 3.2 km/h 77 % 0 mm 397 W/m2
08:17 19.1 °C 14.6 °C 1024.6 hPa Calm   3.2 km/h 75 % 0 mm 399 W/m2
08:21 19.4 °C 14.7 °C 1024.6 hPa Calm   3.2 km/h 74 % 0 mm 427 W/m2
08:27 19.8 °C 14.8 °C 1024.6 hPa Calm   1.6 km/h 73 % 0 mm 461 W/m2
08:32 20 °C 14.8 °C 1024.6 hPa Calm   1.6 km/h 72 % 0 mm 330 W/m2
08:37 20.1 °C 14.7 °C 1024.6 hPa NW 1.6 km/h 3.2 km/h 71 % 0 mm 334 W/m2
08:42 20.1 °C 14.9 °C 1024.6 hPa NNE 1.6 km/h 3.2 km/h 72 % 0 mm 239 W/m2
08:47 20.2 °C 15 °C 1024.6 hPa ENE 1.6 km/h 8 km/h 72 % 0 mm 508 W/m2
08:52 20.2 °C 15 °C 1024.6 hPa East 3.2 km/h 8 km/h 72 % 0 mm 545 W/m2
08:57 20.6 °C 15.4 °C 1024.6 hPa East 1.6 km/h 6.4 km/h 72 % 0 mm 513 W/m2
09:02 20.9 °C 15.2 °C 1024.3 hPa East 1.6 km/h 6.4 km/h 70 % 0 mm 503 W/m2
09:07 21.1 °C 15.2 °C 1024.6 hPa East 1.6 km/h 8 km/h 69 % 0 mm 533 W/m2
09:12 21.3 °C 15.4 °C 1024.6 hPa ESE 1.6 km/h 8 km/h 69 % 0 mm 566 W/m2
09:17 21.3 °C 15.2 °C 1024.3 hPa SSE 3.2 km/h 9.7 km/h 68 % 0 mm 571 W/m2
09:22 21.1 °C 15.4 °C 1024.6 hPa SSE 4.8 km/h 9.7 km/h 70 % 0 mm 580 W/m2
09:27 21.3 °C 15.6 °C 1024.3 hPa SSE 3.2 km/h 8 km/h 70 % 0 mm 594 W/m2
09:32 21.4 °C 15.5 °C 1024.3 hPa SE 3.2 km/h 11.3 km/h 69 % 0 mm 610 W/m2
09:37 21.3 °C 15.6 °C 1024.3 hPa SSE 3.2 km/h 11.3 km/h 70 % 0 mm 612 W/m2
09:42 21.4 °C 15.5 °C 1024.3 hPa South 3.2 km/h 9.7 km/h 69 % 0 mm 633 W/m2
09:47 21.7 °C 15.8 °C 1024.3 hPa South 1.6 km/h 8 km/h 69 % 0 mm 650 W/m2
09:52 21.9 °C 15.5 °C 1024.3 hPa SSE 3.2 km/h 9.7 km/h 67 % 0 mm 656 W/m2
09:57 21.8 °C 15.4 °C 1024.3 hPa SSE 4.8 km/h 9.7 km/h 67 % 0 mm 663 W/m2
10:02 21.8 °C 15.4 °C 1024.3 hPa SSE 3.2 km/h 8 km/h 67 % 0 mm 673 W/m2
10:07 21.9 °C 15.5 °C 1024.3 hPa SSE 4.8 km/h 9.7 km/h 67 % 0 mm 686 W/m2
10:12 21.9 °C 15.5 °C 1024.3 hPa SE 4.8 km/h 9.7 km/h 67 % 0 mm 694 W/m2
10:17 22.2 °C 15.8 °C 1024.3 hPa SE 3.2 km/h 11.3 km/h 67 % 0 mm 707 W/m2
10:22 22.4 °C 15.5 °C 1023.9 hPa SE 3.2 km/h 11.3 km/h 65 % 0 mm 715 W/m2
10:27 22.8 °C 15.9 °C 1023.9 hPa SE 1.6 km/h 8 km/h 65 % 0 mm 728 W/m2
10:32 23.2 °C 16 °C 1024.3 hPa ESE 3.2 km/h 8 km/h 64 % 0 mm 731 W/m2
10:37 23.4 °C 15.7 °C 1023.9 hPa East 3.2 km/h 9.7 km/h 62 % 0 mm 745 W/m2
10:42 23.6 °C 15.9 °C 1023.9 hPa East 1.6 km/h 9.7 km/h 62 % 0 mm 742 W/m2
10:47 23.7 °C 15.7 °C 1023.9 hPa East 1.6 km/h 8 km/h 61 % 0 mm 759 W/m2
10:52 23.9 °C 16.2 °C 1023.9 hPa ESE 3.2 km/h 11.3 km/h 62 % 0 mm 766 W/m2
10:57 23.9 °C 16.2 °C 1023.9 hPa ESE 4.8 km/h 11.3 km/h 62 % 0 mm 766 W/m2
11:02 24.1 °C 16.6 °C 1023.9 hPa ESE 3.2 km/h 12.9 km/h 63 % 0 mm 784 W/m2
11:07 24.3 °C 16.6 °C 1023.9 hPa ESE 4.8 km/h 12.9 km/h 62 % 0 mm 779 W/m2
11:12 24.3 °C 16.3 °C 1023.9 hPa ESE 3.2 km/h 12.9 km/h 61 % 0 mm 786 W/m2
11:17 24.4 °C 16.4 °C 1023.6 hPa East 3.2 km/h 9.7 km/h 61 % 0 mm 809 W/m2
11:22 24.6 °C 16.6 °C 1023.9 hPa East 4.8 km/h 9.7 km/h 61 % 0 mm 810 W/m2
11:27 24.7 °C 16.4 °C 1023.6 hPa East 4.8 km/h 14.5 km/h 60 % 0 mm 828 W/m2
11:32 24.6 °C 16.6 °C 1023.6 hPa ESE 6.4 km/h 14.5 km/h 61 % 0 mm 823 W/m2
11:37 24.6 °C 16.6 °C 1023.6 hPa East 4.8 km/h 12.9 km/h 61 % 0 mm 833 W/m2
11:42 24.6 °C 16.8 °C 1023.6 hPa East 3.2 km/h 9.7 km/h 62 % 0 mm 828 W/m2
11:47 24.9 °C 16.8 °C 1023.6 hPa ENE 4.8 km/h 11.3 km/h 61 % 0 mm 838 W/m2
11:48 24.9 °C 16.8 °C 1023.6 hPa ENE 4.8 km/h 11.3 km/h 61 % 0 mm 838 W/m2
11:53 25.2 °C 16.6 °C 1023.2 hPa SE 6.4 km/h 12.9 km/h 59 % 0 mm 846 W/m2
11:58 24.8 °C 16.8 °C 1023.2 hPa South 8 km/h 14.5 km/h 61 % 0 mm 853 W/m2
12:03 24.8 °C 16.8 °C 1023.2 hPa ESE 6.4 km/h 14.5 km/h 61 % 0 mm 853 W/m2
12:08 24.9 °C 16.6 °C 1023.2 hPa ENE 6.4 km/h 11.3 km/h 60 % 0 mm 870 W/m2
12:13 24.9 °C 16.6 °C 1023.2 hPa ENE 6.4 km/h 11.3 km/h 60 % 0 mm 847 W/m2
12:18 25.1 °C 16.5 °C 1023.2 hPa East 6.4 km/h 14.5 km/h 59 % 0 mm 868 W/m2
12:23 25.2 °C 16.3 °C 1023.2 hPa East 6.4 km/h 16.1 km/h 58 % 0 mm 868 W/m2
12:28 25.3 °C 16.7 °C 1022.9 hPa ESE 4.8 km/h 16.1 km/h 59 % 0 mm 851 W/m2
12:33 25.6 °C 16.4 °C 1022.9 hPa ESE 6.4 km/h 19.3 km/h 57 % 0 mm 856 W/m2
12:38 25.5 °C 16.3 °C 1022.9 hPa ESE 6.4 km/h 19.3 km/h 57 % 0 mm 849 W/m2
12:43 25.7 °C 16.6 °C 1022.9 hPa ESE 4.8 km/h 11.3 km/h 57 % 0 mm 874 W/m2
12:48 25.8 °C 16.3 °C 1022.9 hPa SSE 4.8 km/h 11.3 km/h 56 % 0 mm 879 W/m2
12:53 25.9 °C 16.4 °C 1022.9 hPa SE 6.4 km/h 17.7 km/h 56 % 0 mm 882 W/m2
12:58 26.1 °C 16.1 °C 1022.9 hPa SE 8 km/h 17.7 km/h 54 % 0 mm 900 W/m2
13:03 26.1 °C 16.3 °C 1022.9 hPa SE 6.4 km/h 14.5 km/h 55 % 0 mm 898 W/m2
13:08 26.1 °C 16.3 °C 1022.9 hPa South 6.4 km/h 14.5 km/h 55 % 0 mm 891 W/m2
13:13 26.3 °C 15.9 °C 1022.9 hPa SE 8 km/h 16.1 km/h 53 % 0 mm 849 W/m2
13:18 26.2 °C 15.9 °C 1022.9 hPa ESE 8 km/h 16.1 km/h 53 % 0 mm 881 W/m2
13:23 26.3 °C 15.3 °C 1022.9 hPa SE 9.7 km/h 19.3 km/h 51 % 0 mm 902 W/m2
13:28 26.4 °C 15.8 °C 1022.6 hPa SSE 8 km/h 19.3 km/h 52 % 0 mm 900 W/m2
13:33 26.5 °C 15.6 °C 1022.9 hPa SE 6.4 km/h 16.1 km/h 51 % 0 mm 896 W/m2
13:38 26.6 °C 15.3 °C 1022.6 hPa SE 6.4 km/h 14.5 km/h 50 % 0 mm 874 W/m2
13:43 26.5 °C 14.9 °C 1022.6 hPa ESE 4.8 km/h 12.9 km/h 49 % 0 mm 868 W/m2
13:48 26.4 °C 15.1 °C 1022.6 hPa ESE 6.4 km/h 14.5 km/h 50 % 0 mm 865 W/m2
13:53 26.7 °C 14.8 °C 1022.6 hPa ESE 3.2 km/h 16.1 km/h 48 % 0 mm 867 W/m2
13:54 26.7 °C 14.8 °C 1022.6 hPa ESE 4.8 km/h 16.1 km/h 48 % 0 mm 867 W/m2
13:59 26.7 °C 14.8 °C 1022.6 hPa ESE 6.4 km/h 16.1 km/h 48 % 0 mm 865 W/m2
14:04 26.7 °C 15.4 °C 1022.6 hPa ESE 8 km/h 16.1 km/h 50 % 0 mm 849 W/m2
14:09 26.8 °C 16.1 °C 1022.6 hPa ESE 6.4 km/h 16.1 km/h 52 % 0 mm 853 W/m2
14:14 26.9 °C 15.6 °C 1022.6 hPa ESE 4.8 km/h 14.5 km/h 50 % 0 mm 831 W/m2
14:19 26.9 °C 15.3 °C 1022.6 hPa SSE 8 km/h 19.3 km/h 49 % 0 mm 840 W/m2
14:24 26.8 °C 15.2 °C 1022.2 hPa South 11.3 km/h 19.3 km/h 49 % 0 mm 828 W/m2
14:29 26.7 °C 15.1 °C 1022.2 hPa SSE 9.7 km/h 20.9 km/h 49 % 0 mm 833 W/m2
14:34 26.7 °C 15.4 °C 1022.2 hPa ESE 9.7 km/h 20.9 km/h 50 % 0 mm 828 W/m2
14:39 26.7 °C 15.4 °C 1022.2 hPa ESE 11.3 km/h 17.7 km/h 50 % 0 mm 833 W/m2
14:45 26.8 °C 15.2 °C 1022.2 hPa SE 11.3 km/h 17.7 km/h 49 % 0 mm 812 W/m2
14:50 26.8 °C 15.5 °C 1022.2 hPa SSE 9.7 km/h 22.5 km/h 50 % 0 mm 800 W/m2
15:00 26.8 °C 15.2 °C 1021.9 hPa SSE 9.7 km/h 19.3 km/h 49 % 0 mm 796 W/m2
15:05 26.8 °C 15.2 °C 1021.9 hPa SSE 8 km/h 19.3 km/h 49 % 0 mm 777 W/m2
15:10 26.8 °C 14.9 °C 1021.9 hPa ESE 6.4 km/h 17.7 km/h 48 % 0 mm 775 W/m2
15:15 27 °C 15.1 °C 1021.9 hPa ESE 9.7 km/h 19.3 km/h 48 % 0 mm 779 W/m2
15:20 26.9 °C 14.9 °C 1021.9 hPa ESE 9.7 km/h 19.3 km/h 48 % 0 mm 759 W/m2
15:25 26.9 °C 14.9 °C 1021.9 hPa SSE 8 km/h 14.5 km/h 48 % 0 mm 765 W/m2
15:30 27 °C 15.1 °C 1021.9 hPa SSE 9.7 km/h 17.7 km/h 48 % 0 mm 744 W/m2
15:35 27.3 °C 15 °C 1021.9 hPa SE 9.7 km/h 17.7 km/h 47 % 0 mm 726 W/m2
15:40 27.2 °C 15.2 °C 1021.9 hPa ESE 8 km/h 16.1 km/h 48 % 0 mm 722 W/m2
15:45 27.3 °C 15.3 °C 1021.9 hPa SE 8 km/h 14.5 km/h 48 % 0 mm 708 W/m2
15:50 27.2 °C 15.6 °C 1021.9 hPa SE 8 km/h 14.5 km/h 49 % 0 mm 708 W/m2
15:55 27.4 °C 15.4 °C 1021.6 hPa SE 9.7 km/h 19.3 km/h 48 % 0 mm 691 W/m2
16:00 27.3 °C 15.3 °C 1021.6 hPa South 9.7 km/h 19.3 km/h 48 % 0 mm 670 W/m2
16:05 27.4 °C 15.7 °C 1021.6 hPa SSE 11.3 km/h 19.3 km/h 49 % 0 mm 666 W/m2
16:10 27.2 °C 15.6 °C 1021.6 hPa ESE 11.3 km/h 19.3 km/h 49 % 0 mm 652 W/m2
16:15 27.3 °C 15.3 °C 1021.6 hPa ESE 8 km/h 19.3 km/h 48 % 0 mm 649 W/m2
16:20 27.4 °C 15.1 °C 1021.6 hPa SE 8 km/h 19.3 km/h 47 % 0 mm 642 W/m2
16:25 27.4 °C 15.4 °C 1021.6 hPa SE 9.7 km/h 20.9 km/h 48 % 0 mm 613 W/m2
16:30 27.3 °C 15.3 °C 1021.6 hPa SE 9.7 km/h 20.9 km/h 48 % 0 mm 605 W/m2
16:35 27.2 °C 15.2 °C 1021.6 hPa ESE 9.7 km/h 16.1 km/h 48 % 0 mm 601 W/m2
16:38 27.2 °C 15.6 °C 1021.6 hPa ESE 9.7 km/h 19.3 km/h 49 % 0 mm 584 W/m2
16:43 27.2 °C 15.9 °C 1021.6 hPa SE 9.7 km/h 19.3 km/h 50 % 0 mm 570 W/m2
16:48 27.2 °C 15.9 °C 1021.6 hPa SE 8 km/h 14.5 km/h 50 % 0 mm 543 W/m2
16:53 27.1 °C 15.4 °C 1021.6 hPa SE 9.7 km/h 17.7 km/h 49 % 0 mm 545 W/m2
16:58 27.1 °C 15.4 °C 1021.2 hPa SE 9.7 km/h 17.7 km/h 49 % 0 mm 508 W/m2
17:03 27.1 °C 15.2 °C 1021.2 hPa SE 9.7 km/h 16.1 km/h 48 % 0 mm 515 W/m2
17:04 27 °C 15.1 °C 1021.2 hPa SE 9.7 km/h 16.1 km/h 48 % 0 mm 520 W/m2
17:09 27.1 °C 15.8 °C 1021.2 hPa SSE 9.7 km/h 20.9 km/h 50 % 0 mm 513 W/m2
17:14 27.1 °C 16.1 °C 1021.2 hPa SSE 9.7 km/h 20.9 km/h 51 % 0 mm 496 W/m2
17:19 27.2 °C 15.9 °C 1021.2 hPa SSE 8 km/h 16.1 km/h 50 % 0 mm 490 W/m2
17:25 27.2 °C 16.5 °C 1021.2 hPa SE 9.7 km/h 19.3 km/h 52 % 0 mm 483 W/m2
17:30 26.9 °C 16.2 °C 1021.2 hPa ESE 11.3 km/h 19.3 km/h 52 % 0 mm 461 W/m2
17:35 26.8 °C 16.4 °C 1021.2 hPa ESE 9.7 km/h 17.7 km/h 53 % 0 mm 443 W/m2
17:39 26.9 °C 16.2 °C 1020.9 hPa ESE 8 km/h 16.1 km/h 52 % 0 mm 429 W/m2
17:45 26.8 °C 15.5 °C 1020.9 hPa ESE 9.7 km/h 17.7 km/h 50 % 0 mm 425 W/m2
17:50 26.8 °C 15.8 °C 1020.9 hPa ESE 9.7 km/h 17.7 km/h 51 % 0 mm 362 W/m2
17:55 26.7 °C 16 °C 1020.9 hPa ESE 9.7 km/h 16.1 km/h 52 % 0 mm 385 W/m2
18:00 26.6 °C 16.2 °C 1020.9 hPa ESE 9.7 km/h 17.7 km/h 53 % 0 mm 362 W/m2
18:01 26.6 °C 16.2 °C 1020.9 hPa ESE 9.7 km/h 17.7 km/h 53 % 0 mm 360 W/m2
18:06 26.6 °C 16.5 °C 1020.9 hPa ESE 9.7 km/h 17.7 km/h 54 % 0 mm 367 W/m2
18:11 26.7 °C 16.3 °C 1020.9 hPa ESE 9.7 km/h 17.7 km/h 53 % 0 mm 339 W/m2
18:16 26.6 °C 15.9 °C 1020.5 hPa SE 9.7 km/h 17.7 km/h 52 % 0 mm 320 W/m2
18:21 26.6 °C 16.2 °C 1020.9 hPa SE 9.7 km/h 17.7 km/h 53 % 0 mm 315 W/m2
18:26 26.6 °C 16.2 °C 1020.9 hPa ESE 9.7 km/h 17.7 km/h 53 % 0 mm 302 W/m2
18:31 26.4 °C 16.1 °C 1020.9 hPa ESE 9.7 km/h 16.1 km/h 53 % 0 mm 292 W/m2
18:36 26.3 °C 15.9 °C 1020.5 hPa SE 9.7 km/h 16.1 km/h 53 % 0 mm 278 W/m2
18:41 26.3 °C 15.7 °C 1020.5 hPa SE 9.7 km/h 17.7 km/h 52 % 0 mm 260 W/m2
18:46 26.2 °C 15.6 °C 1020.5 hPa ESE 9.7 km/h 17.7 km/h 52 % 0 mm 243 W/m2
18:48 26.2 °C 15.6 °C 1020.5 hPa ESE 9.7 km/h 17.7 km/h 52 % 0 mm 241 W/m2
18:53 26.2 °C 15.3 °C 1020.5 hPa ESE 9.7 km/h 17.7 km/h 51 % 0 mm 234 W/m2
18:58 26.1 °C 15.5 °C 1020.5 hPa ESE 11.3 km/h 17.7 km/h 52 % 0 mm 216 W/m2
19:03 26 °C 15.7 °C 1020.5 hPa ESE 9.7 km/h 16.1 km/h 53 % 0 mm 204 W/m2
19:08 26 °C 15.7 °C 1020.5 hPa ESE 9.7 km/h 16.1 km/h 53 % 0 mm 192 W/m2
19:13 25.9 °C 15.9 °C 1020.5 hPa ESE 9.7 km/h 17.7 km/h 54 % 0 mm 183 W/m2
19:18 25.8 °C 16.1 °C 1020.5 hPa ESE 9.7 km/h 17.7 km/h 55 % 0 mm 169 W/m2
19:20 25.7 °C 16 °C 1020.5 hPa ESE 9.7 km/h 16.1 km/h 55 % 0 mm 165 W/m2
19:25 25.7 °C 16.3 °C 1020.5 hPa ESE 8 km/h 16.1 km/h 56 % 0 mm 156 W/m2
19:30 25.6 °C 16.2 °C 1020.5 hPa SE 8 km/h 17.7 km/h 56 % 0 mm 142 W/m2
19:35 25.4 °C 16 °C 1020.2 hPa SE 9.7 km/h 17.7 km/h 56 % 0 mm 132 W/m2
19:40 25.3 °C 16.2 °C 1020.2 hPa ESE 11.3 km/h 17.7 km/h 57 % 0 mm 123 W/m2
19:45 25.1 °C 16.3 °C 1020.2 hPa ESE 9.7 km/h 14.5 km/h 58 % 0 mm 113 W/m2
19:50 24.9 °C 16.3 °C 1020.2 hPa ESE 9.7 km/h 17.7 km/h 59 % 0 mm 65 W/m2
19:55 24.7 °C 16.2 °C 1020.2 hPa ESE 11.3 km/h 17.7 km/h 59 % 0 mm 47 W/m2
20:00 24.6 °C 16.3 °C 1020.2 hPa ESE 11.3 km/h 16.1 km/h 60 % 0 mm 44 W/m2
20:05 24.4 °C 16.1 °C 1020.2 hPa SE 9.7 km/h 16.1 km/h 60 % 0 mm 37 W/m2
20:10 24.2 °C 16.2 °C 1020.5 hPa ESE 9.7 km/h 16.1 km/h 61 % 0 mm 35 W/m2
20:15 24.1 °C 16.1 °C 1020.2 hPa SE 11.3 km/h 17.7 km/h 61 % 0 mm 33 W/m2
20:20 23.9 °C 16.2 °C 1020.2 hPa SE 9.7 km/h 17.7 km/h 62 % 0 mm 30 W/m2
20:25 23.7 °C 16 °C 1020.2 hPa ESE 11.3 km/h 19.3 km/h 62 % 0 mm 26 W/m2
20:30 23.6 °C 16.2 °C 1020.5 hPa ESE 11.3 km/h 19.3 km/h 63 % 0 mm 25 W/m2
20:35 23.4 °C 16.2 °C 1020.5 hPa ESE 9.7 km/h 16.1 km/h 64 % 0 mm 23 W/m2
20:40 23.3 °C 16.1 °C 1020.5 hPa ESE 8 km/h 12.9 km/h 64 % 0 mm 19 W/m2
20:45 23.2 °C 16 °C 1020.5 hPa ESE 8 km/h 12.9 km/h 64 % 0 mm 18 W/m2
20:50 23.1 °C 16.2 °C 1020.5 hPa SE 6.4 km/h 12.9 km/h 65 % 0 mm 14 W/m2
20:55 22.9 °C 16.2 °C 1020.5 hPa ESE 6.4 km/h 12.9 km/h 66 % 0 mm 12 W/m2
21:00 22.8 °C 16.1 °C 1020.5 hPa ESE 4.8 km/h 11.3 km/h 66 % 0 mm 11 W/m2
21:05 22.6 °C 16.2 °C 1020.5 hPa ESE 4.8 km/h 11.3 km/h 67 % 0 mm 9 W/m2
21:10 22.5 °C 16.1 °C 1020.5 hPa SE 4.8 km/h 11.3 km/h 67 % 0 mm 7 W/m2
21:15 22.3 °C 16.1 °C 1020.5 hPa ESE 4.8 km/h 11.3 km/h 68 % 0 mm 5 W/m2
21:20 22.2 °C 16 °C 1020.5 hPa ESE 4.8 km/h 9.7 km/h 68 % 0 mm 0 W/m2
21:25 22.1 °C 15.9 °C 1020.5 hPa ESE 4.8 km/h 9.7 km/h 68 % 0 mm 0 W/m2
21:30 21.8 °C 15.8 °C 1020.5 hPa ESE 4.8 km/h 9.7 km/h 69 % 0 mm 0 W/m2
21:31 21.8 °C 15.8 °C 1020.5 hPa ESE 4.8 km/h 9.7 km/h 69 % 0 mm 0 W/m2
21:36 21.7 °C 15.8 °C 1020.5 hPa ESE 6.4 km/h 9.7 km/h 69 % 0 mm 0 W/m2
21:41 21.6 °C 15.7 °C 1020.5 hPa ESE 6.4 km/h 9.7 km/h 69 % 0 mm 0 W/m2
21:46 21.4 °C 15.7 °C 1020.5 hPa ESE 4.8 km/h 8 km/h 70 % 0 mm 0 W/m2
21:51 21.3 °C 15.8 °C 1020.5 hPa East 4.8 km/h 9.7 km/h 71 % 0 mm 0 W/m2
21:56 21.2 °C 15.9 °C 1020.9 hPa ESE 6.4 km/h 12.9 km/h 72 % 0 mm 0 W/m2
22:01 21.1 °C 15.8 °C 1020.9 hPa ESE 8 km/h 16.1 km/h 72 % 0 mm 0 W/m2
22:06 20.9 °C 15.9 °C 1020.9 hPa ESE 8 km/h 16.1 km/h 73 % 0 mm 0 W/m2
22:11 20.8 °C 15.8 °C 1020.9 hPa ESE 9.7 km/h 16.1 km/h 73 % 0 mm 0 W/m2
22:16 20.7 °C 15.9 °C 1020.9 hPa ESE 9.7 km/h 16.1 km/h 74 % 0 mm 0 W/m2
22:21 20.6 °C 16 °C 1020.9 hPa ESE 9.7 km/h 14.5 km/h 75 % 0 mm 0 W/m2
22:26 20.4 °C 15.8 °C 1020.9 hPa ESE 8 km/h 14.5 km/h 75 % 0 mm 0 W/m2
22:31 20.3 °C 15.9 °C 1020.9 hPa ESE 6.4 km/h 12.9 km/h 76 % 0 mm 0 W/m2
22:36 20.2 °C 16.1 °C 1020.9 hPa ESE 4.8 km/h 9.7 km/h 77 % 0 mm 0 W/m2
22:41 20.1 °C 16.2 °C 1020.9 hPa ESE 4.8 km/h 9.7 km/h 78 % 0 mm 0 W/m2
22:46 19.9 °C 16.2 °C 1020.9 hPa ESE 6.4 km/h 9.7 km/h 79 % 0 mm 0 W/m2
22:51 19.8 °C 16.1 °C 1020.9 hPa ESE 4.8 km/h 9.7 km/h 79 % 0 mm 0 W/m2
22:56 19.7 °C 16.2 °C 1020.9 hPa ESE 3.2 km/h 8 km/h 80 % 0 mm 0 W/m2
23:01 19.6 °C 16.1 °C 1020.9 hPa ESE 1.6 km/h 8 km/h 80 % 0 mm 0 W/m2
23:06 19.4 °C 15.8 °C 1020.9 hPa ESE 1.6 km/h 8 km/h 80 % 0 mm 0 W/m2
23:11 19.3 °C 15.8 °C 1020.9 hPa Calm   4.8 km/h 80 % 0 mm 0 W/m2
23:16 19.1 °C 15.8 °C 1020.9 hPa Calm   3.2 km/h 81 % 0 mm 0 W/m2
23:17 19.1 °C 15.8 °C 1020.9 hPa Calm   3.2 km/h 81 % 0 mm 0 W/m2
23:22 18.9 °C 15.6 °C 1021.2 hPa Calm   3.2 km/h 81 % 0 mm 0 W/m2
23:27 18.8 °C 15.4 °C 1020.9 hPa Calm   3.2 km/h 81 % 0 mm 0 W/m2
23:32 18.7 °C 15.4 °C 1020.9 hPa Calm   3.2 km/h 81 % 0 mm 0 W/m2
23:37 18.6 °C 15.4 °C 1020.9 hPa Calm   3.2 km/h 82 % 0 mm 0 W/m2
23:42 18.4 °C 15.4 °C 1020.9 hPa ESE 1.6 km/h 8 km/h 83 % 0 mm 0 W/m2
23:47 18.4 °C 15.4 °C 1020.9 hPa ESE 1.6 km/h 8 km/h 83 % 0 mm 0 W/m2
23:52 18.3 °C 15.4 °C 1020.9 hPa SE 1.6 km/h 9.7 km/h 83 % 0 mm 0 W/m2
23:57 18.3 °C 15.4 °C 1020.9 hPa SE 1.6 km/h 9.7 km/h 83 % 0 mm 0 W/m2
Delerius-Weather
Compliments of Weather Underground - 2.25 mb

Data updates at regular intervals.